createdAt,value
2017-02-21T00:00:47.328Z,43.94
2017-02-21T00:01:47.741Z,43.75
2017-02-21T00:02:47.785Z,44.04
2017-02-21T00:03:47.794Z,43.85
2017-02-21T00:04:47.824Z,43.85
2017-02-21T00:05:47.844Z,43.85
2017-02-21T00:06:47.873Z,43.75
2017-02-21T00:07:47.906Z,43.85
2017-02-21T00:08:47.552Z,43.85
2017-02-21T00:09:47.959Z,43.85
2017-02-21T00:10:48.015Z,43.85
2017-02-21T00:11:47.624Z,43.94
2017-02-21T00:12:47.905Z,43.75
2017-02-21T00:13:48.090Z,43.75
2017-02-21T00:14:48.127Z,44.13
2017-02-21T00:15:47.732Z,43.94
2017-02-21T00:16:47.772Z,43.75
2017-02-21T00:17:48.034Z,43.85
2017-02-21T00:18:48.206Z,43.85
2017-02-21T00:19:48.257Z,43.85
2017-02-21T00:20:48.262Z,44.13
2017-02-21T00:21:48.307Z,44.23
2017-02-21T00:22:48.564Z,43.85
2017-02-21T00:23:48.353Z,44.13
2017-02-21T00:24:48.383Z,43.94
2017-02-21T00:25:48.003Z,44.42
2017-02-21T00:26:48.044Z,44.23
2017-02-21T00:27:48.704Z,43.94
2017-02-21T00:28:48.097Z,44.23
2017-02-21T00:29:48.514Z,44.32
2017-02-21T00:30:48.554Z,44.52
2017-02-21T00:31:48.559Z,44.32
2017-02-21T00:32:48.449Z,44.13
2017-02-21T00:33:48.620Z,44.52
2017-02-21T00:34:48.265Z,44.42
2017-02-21T00:35:48.674Z,44.32
2017-02-21T00:36:48.707Z,44.23
2017-02-21T00:37:48.994Z,44.32
2017-02-21T00:38:48.789Z,44.23
2017-02-21T00:39:48.374Z,44.32
2017-02-21T00:40:48.823Z,44.32
2017-02-21T00:41:48.831Z,44.13
2017-02-21T00:42:48.474Z,44.32
2017-02-21T00:43:48.492Z,44.42
2017-02-21T00:44:48.950Z,44.04
2017-02-21T00:45:48.943Z,44.32
2017-02-21T00:46:48.987Z,44.21
2017-02-21T00:47:49.246Z,44.32
2017-02-21T00:48:48.644Z,44.52
2017-02-21T00:49:49.042Z,44.42
2017-02-21T00:50:48.698Z,44.42
2017-02-21T00:51:48.710Z,44.52
2017-02-21T00:52:49.382Z,44.4
2017-02-21T00:53:49.170Z,44.49
2017-02-21T00:54:49.192Z,44.52
2017-02-21T00:55:49.210Z,44.49
2017-02-21T00:56:48.857Z,44.49
2017-02-21T00:57:49.119Z,44.4
2017-02-21T00:58:49.303Z,44.42
2017-02-21T00:59:49.320Z,44.31
2017-02-21T01:00:49.358Z,44.21
2017-02-21T01:01:49.378Z,44.23
2017-02-21T01:02:49.670Z,44.4
2017-02-21T01:03:49.048Z,44.42
2017-02-21T01:04:49.096Z,44.11
2017-02-21T01:05:49.097Z,44.4
2017-02-21T01:06:49.117Z,44.23
2017-02-21T01:07:49.137Z,44.21
2017-02-21T01:08:49.178Z,44.21
2017-02-21T01:09:49.203Z,44.4
2017-02-21T01:10:49.649Z,44.21
2017-02-21T01:11:49.650Z,44.21
2017-02-21T01:12:49.707Z,44.21
2017-02-21T01:13:49.307Z,44.4
2017-02-21T01:14:49.752Z,44.4
2017-02-21T01:15:49.764Z,44.21
2017-02-21T01:16:49.793Z,44.4
2017-02-21T01:17:49.810Z,44.21
2017-02-21T01:18:49.463Z,44.21
2017-02-21T01:19:49.471Z,44.49
2017-02-21T01:20:49.911Z,44.31
2017-02-21T01:21:49.933Z,44.31
2017-02-21T01:22:49.570Z,44.4
2017-02-21T01:23:49.979Z,44.31
2017-02-21T01:24:50.020Z,44.49
2017-02-21T01:25:49.632Z,44.11
2017-02-21T01:26:50.320Z,44.4
2017-02-21T01:27:49.689Z,44.59
2017-02-21T01:28:50.142Z,44.11
2017-02-21T01:30:21.816Z,44.11
2017-02-21T01:32:05.393Z,44.11
2017-02-21T01:33:05.406Z,44.49
2017-02-21T01:34:05.445Z,44.21
2017-02-21T01:35:05.047Z,44.49
2017-02-21T01:36:05.472Z,44.4
2017-02-21T01:37:05.357Z,44.11
2017-02-21T01:38:05.530Z,44.11
2017-02-21T01:39:05.162Z,44.02
2017-02-21T01:40:05.595Z,44.21
2017-02-21T01:41:05.220Z,44.11
2017-02-21T01:42:05.490Z,44.21
2017-02-21T01:43:05.672Z,44.11
2017-02-21T01:44:05.310Z,44.49
2017-02-21T01:45:05.718Z,44.11
2017-02-21T01:46:05.346Z,44.11
2017-02-21T01:47:05.628Z,44.11
2017-02-21T01:48:05.801Z,44.21
2017-02-21T01:49:05.429Z,44.11
2017-02-21T01:50:05.855Z,44.11
2017-02-21T01:51:05.878Z,44.21
2017-02-21T01:52:06.164Z,44.11
2017-02-21T01:53:05.937Z,44.02
2017-02-21T01:54:05.962Z,44.11
2017-02-21T01:55:05.603Z,44.11
2017-02-21T01:56:06.014Z,44.11
2017-02-21T01:57:06.063Z,44.21
2017-02-21T01:58:05.676Z,44.21
2017-02-21T01:59:06.097Z,44.21
2017-02-21T02:00:05.745Z,44.21
2017-02-21T02:01:05.747Z,44.21
2017-02-21T02:02:06.191Z,44.02
2017-02-21T02:03:06.213Z,43.92
2017-02-21T02:04:05.833Z,44.02
2017-02-21T02:05:05.878Z,44.21
2017-02-21T02:06:06.286Z,44.11
2017-02-21T02:07:06.316Z,44.11
2017-02-21T02:08:06.352Z,44.11
2017-02-21T02:09:06.369Z,43.92
2017-02-21T02:10:06.395Z,44.31
2017-02-21T02:11:06.422Z,44.21
2017-02-21T02:12:06.447Z,44.21
2017-02-21T02:13:06.079Z,44.21
2017-02-21T02:14:06.516Z,44.21
2017-02-21T02:15:06.558Z,44.11
2017-02-21T02:16:06.157Z,44.02
2017-02-21T02:17:06.582Z,44.21
2017-02-21T02:18:06.610Z,44.11
2017-02-21T02:19:06.641Z,44.11
2017-02-21T02:20:06.666Z,44.21
2017-02-21T02:21:06.693Z,44.4
2017-02-21T02:22:06.722Z,44.11
2017-02-21T02:23:06.751Z,44.4
2017-02-21T02:24:06.381Z,44.02
2017-02-21T02:25:06.404Z,44.31
2017-02-21T02:26:06.829Z,44.11
2017-02-21T02:27:06.458Z,44.21
2017-02-21T02:28:06.882Z,43.92
2017-02-21T02:29:06.911Z,44.31
2017-02-21T02:30:06.540Z,44.02
2017-02-21T02:31:06.577Z,44.21
2017-02-21T02:32:06.605Z,44.21
2017-02-21T02:33:07.027Z,44.02
2017-02-21T02:34:06.647Z,44.21
2017-02-21T02:35:07.072Z,44.11
2017-02-21T02:36:06.704Z,44.11
2017-02-21T02:37:07.129Z,44.21
2017-02-21T02:38:07.161Z,44.31
2017-02-21T02:39:07.177Z,44.31
2017-02-21T02:40:07.207Z,44.11
2017-02-21T02:41:06.833Z,44.31
2017-02-21T02:42:06.864Z,44.11
2017-02-21T02:43:07.542Z,44.31
2017-02-21T02:44:06.918Z,43.92
2017-02-21T02:45:07.343Z,44.49
2017-02-21T02:46:07.379Z,44.02
2017-02-21T02:47:07.396Z,44.11
2017-02-21T02:48:07.281Z,44.11
2017-02-21T02:49:07.055Z,44.21
2017-02-21T02:50:07.479Z,44.11
2017-02-21T02:51:07.504Z,44.11
2017-02-21T02:52:07.526Z,44.31
2017-02-21T02:53:07.422Z,44.31
2017-02-21T02:54:07.185Z,44.11
2017-02-21T02:55:07.613Z,44.21
2017-02-21T02:56:07.639Z,44.31
2017-02-21T02:57:07.682Z,44.31
2017-02-21T02:58:07.953Z,44.31
2017-02-21T02:59:07.733Z,44.31
2017-02-21T03:00:07.754Z,44.11
2017-02-21T03:01:07.773Z,44.21
2017-02-21T03:02:07.410Z,44.11
2017-02-21T03:03:08.079Z,44.19
2017-02-21T03:04:07.857Z,44.21
2017-02-21T03:05:07.489Z,44.02
2017-02-21T03:06:07.921Z,44.31
2017-02-21T03:07:07.551Z,44.02
2017-02-21T03:08:08.226Z,44.31
2017-02-21T03:09:07.993Z,44.02
2017-02-21T03:10:08.048Z,44.31
2017-02-21T03:11:07.650Z,44.21
2017-02-21T03:12:08.079Z,44.4
2017-02-21T03:13:07.699Z,44.11
2017-02-21T03:14:08.127Z,44.49
2017-02-21T03:15:07.757Z,44.11
2017-02-21T03:16:08.177Z,44.02
2017-02-21T03:17:08.213Z,44.11
2017-02-21T03:18:07.835Z,44.31
2017-02-21T03:19:07.872Z,44.21
2017-02-21T03:20:07.895Z,44.02
2017-02-21T03:21:08.313Z,44.21
2017-02-21T03:22:08.340Z,44.21
2017-02-21T03:23:08.366Z,44.02
2017-02-21T03:24:08.399Z,44.31
2017-02-21T03:25:08.424Z,44.11
2017-02-21T03:26:08.456Z,44.11
2017-02-21T03:27:08.474Z,44.4
2017-02-21T03:28:08.114Z,44.21
2017-02-21T03:29:08.531Z,44.31
2017-02-21T03:30:08.167Z,44.11
2017-02-21T03:31:08.189Z,44.21
2017-02-21T03:32:08.617Z,44.69
2017-02-21T03:33:08.641Z,44.31
2017-02-21T03:34:08.662Z,44.31
2017-02-21T03:35:08.700Z,44.19
2017-02-21T03:36:08.720Z,44.11
2017-02-21T03:37:08.784Z,44.49
2017-02-21T03:38:08.385Z,44.21
2017-02-21T03:39:08.806Z,44.4
2017-02-21T03:40:08.439Z,44.21
2017-02-21T03:41:08.856Z,44.11
2017-02-21T03:42:08.884Z,44.31
2017-02-21T03:43:08.906Z,43.99
2017-02-21T03:44:08.954Z,44.21
2017-02-21T03:45:08.571Z,44.48
2017-02-21T03:46:08.995Z,44.11
2017-02-21T03:47:09.024Z,44.49
2017-02-21T03:48:09.059Z,44.38
2017-02-21T03:49:08.696Z,44.67
2017-02-21T03:50:08.702Z,44.4
2017-02-21T03:51:08.731Z,44.21
2017-02-21T03:52:08.760Z,44.59
2017-02-21T03:53:09.181Z,44.49
2017-02-21T03:54:08.937Z,44.21
2017-02-21T03:55:09.250Z,44.49
2017-02-21T03:56:08.872Z,44.4
2017-02-21T03:57:08.892Z,44.69
2017-02-21T03:58:09.325Z,44.59
2017-02-21T03:59:09.336Z,44.49
2017-02-21T04:00:08.973Z,44.4
2017-02-21T04:01:08.999Z,44.4
2017-02-21T04:02:09.034Z,44.4
2017-02-21T04:03:09.453Z,44.69
2017-02-21T04:04:09.738Z,44.69
2017-02-21T04:05:09.108Z,44.49
2017-02-21T04:06:09.539Z,44.69
2017-02-21T04:07:09.560Z,44.86
2017-02-21T04:08:09.588Z,44.69
2017-02-21T04:09:09.865Z,44.76
2017-02-21T04:10:09.642Z,44.98
2017-02-21T04:11:09.671Z,44.76
2017-02-21T04:12:09.691Z,44.76
2017-02-21T04:13:09.720Z,44.59
2017-02-21T04:14:09.612Z,44.69
2017-02-21T04:15:09.774Z,44.79
2017-02-21T04:16:09.406Z,44.69
2017-02-21T04:17:09.823Z,44.69
2017-02-21T04:18:09.476Z,44.79
2017-02-21T04:19:09.736Z,44.86
2017-02-21T04:20:09.906Z,44.76
2017-02-21T04:21:09.938Z,44.59
2017-02-21T04:22:09.962Z,44.79
2017-02-21T04:23:09.992Z,44.86
2017-02-21T04:24:10.281Z,44.67
2017-02-21T04:25:10.037Z,44.86
2017-02-21T04:26:10.070Z,44.86
2017-02-21T04:27:09.703Z,44.79
2017-02-21T04:28:10.127Z,44.67
2017-02-21T04:29:09.755Z,44.86
2017-02-21T04:30:09.801Z,44.76
2017-02-21T04:31:09.826Z,44.76
2017-02-21T04:32:09.839Z,44.67
2017-02-21T04:33:10.276Z,44.79
2017-02-21T04:34:10.288Z,44.76
2017-02-21T04:35:10.317Z,44.67
2017-02-21T04:36:09.950Z,44.57
2017-02-21T04:37:09.974Z,44.76
2017-02-21T04:38:09.999Z,44.76
2017-02-21T04:39:10.424Z,44.86
2017-02-21T04:40:10.065Z,44.89
2017-02-21T04:41:10.474Z,44.67
2017-02-21T04:42:10.510Z,44.67
2017-02-21T04:43:10.531Z,44.86
2017-02-21T04:44:10.567Z,44.86
2017-02-21T04:45:10.590Z,44.86
2017-02-21T04:46:10.611Z,44.67
2017-02-21T04:47:10.639Z,44.67
2017-02-21T04:48:10.666Z,44.76
2017-02-21T04:49:10.299Z,44.57
2017-02-21T04:50:10.325Z,44.86
2017-02-21T04:51:10.361Z,44.67
2017-02-21T04:52:10.390Z,44.76
2017-02-21T04:53:10.406Z,44.76
2017-02-21T04:54:10.439Z,44.76
2017-02-21T04:55:10.468Z,44.67
2017-02-21T04:56:10.486Z,44.76
2017-02-21T04:57:10.930Z,44.76
2017-02-21T04:58:10.935Z,44.76
2017-02-21T04:59:10.967Z,44.76
2017-02-21T05:00:10.992Z,44.67
2017-02-21T05:01:11.017Z,44.86
2017-02-21T05:02:11.041Z,44.57
2017-02-21T05:03:11.069Z,44.19
2017-02-21T05:04:11.098Z,44.48
2017-02-21T05:05:11.137Z,44.48
2017-02-21T05:06:10.748Z,44.48
2017-02-21T05:07:11.181Z,44.86
2017-02-21T05:08:10.813Z,44.57
2017-02-21T05:09:11.235Z,44.57
2017-02-21T05:10:11.259Z,44.4
2017-02-21T05:11:11.288Z,44.48
2017-02-21T05:12:10.917Z,44.57
2017-02-21T05:13:10.946Z,44.67
2017-02-21T05:14:11.371Z,44.67
2017-02-21T05:15:11.408Z,44.79
2017-02-21T05:16:11.417Z,44.76
2017-02-21T05:17:11.460Z,44.48
2017-02-21T05:18:11.473Z,44.76
2017-02-21T05:19:11.106Z,44.31
2017-02-21T05:20:11.136Z,44.76
2017-02-21T05:21:11.562Z,45.25
2017-02-21T05:22:11.584Z,45.25
2017-02-21T05:23:11.621Z,45.34
2017-02-21T05:24:11.638Z,45.73
2017-02-21T05:25:11.663Z,45.75
2017-02-21T05:26:11.299Z,45.84
2017-02-21T05:27:11.721Z,45.92
2017-02-21T05:28:11.745Z,45.94
2017-02-21T05:29:11.770Z,46.14
2017-02-21T05:30:11.811Z,46.11
2017-02-21T05:31:11.431Z,45.92
2017-02-21T05:32:11.840Z,46.23
2017-02-21T05:33:11.897Z,46.11
2017-02-21T05:34:11.982Z,46.33
2017-02-21T05:35:11.541Z,46.23
2017-02-21T05:36:11.563Z,46.23
2017-02-21T05:37:12.004Z,46.23
2017-02-21T05:38:11.616Z,46.62
2017-02-21T05:39:12.040Z,46.71
2017-02-21T05:40:12.066Z,46.33
2017-02-21T05:41:12.105Z,46.33
2017-02-21T05:42:12.120Z,46.62
2017-02-21T05:43:11.752Z,46.52
2017-02-21T05:44:11.774Z,46.42
2017-02-21T05:45:12.209Z,46.23
2017-02-21T05:46:11.837Z,46.62
2017-02-21T05:47:12.252Z,46.62
2017-02-21T05:48:12.308Z,46.52
2017-02-21T05:49:12.314Z,46.52
2017-02-21T05:50:12.337Z,46.52
2017-02-21T05:51:11.975Z,46.91
2017-02-21T05:52:11.996Z,46.71
2017-02-21T05:53:12.424Z,46.52
2017-02-21T05:54:12.444Z,47.29
2017-02-21T05:55:12.474Z,46.52
2017-02-21T05:56:12.501Z,46.33
2017-02-21T05:57:12.130Z,46.33
2017-02-21T05:58:12.551Z,46.33
2017-02-21T05:59:12.580Z,46.62
2017-02-21T06:00:12.604Z,46.52
2017-02-21T06:01:12.651Z,46.42
2017-02-21T06:02:12.670Z,46.42
2017-02-21T06:03:12.687Z,46.33
2017-02-21T06:04:12.320Z,46.15
2017-02-21T06:05:12.747Z,46.55
2017-02-21T06:06:12.774Z,46.55
2017-02-21T06:07:12.395Z,46.73
2017-02-21T06:08:12.427Z,46.35
2017-02-21T06:09:12.464Z,46.64
2017-02-21T06:10:12.880Z,46.15
2017-02-21T06:11:12.514Z,46.25
2017-02-21T06:12:12.539Z,46.25
2017-02-21T06:13:12.561Z,46.15
2017-02-21T06:14:12.983Z,46.15
2017-02-21T06:15:12.873Z,45.87
2017-02-21T06:16:13.046Z,46.15
2017-02-21T06:17:12.673Z,46.06
2017-02-21T06:18:12.711Z,46.06
2017-02-21T06:19:13.142Z,45.87
2017-02-21T06:20:13.415Z,45.87
2017-02-21T06:21:13.184Z,45.97
2017-02-21T06:22:12.814Z,45.87
2017-02-21T06:23:13.242Z,45.87
2017-02-21T06:24:12.864Z,45.77
2017-02-21T06:25:13.144Z,46.15
2017-02-21T06:26:13.324Z,46.15
2017-02-21T06:27:12.946Z,46.06
2017-02-21T06:28:13.379Z,46.06
2017-02-21T06:29:13.402Z,46.15
2017-02-21T06:30:13.279Z,46.06
2017-02-21T06:31:13.456Z,46.15
2017-02-21T06:32:13.086Z,46.06
2017-02-21T06:33:13.514Z,45.68
2017-02-21T06:34:13.140Z,45.58
2017-02-21T06:35:13.415Z,45.48
2017-02-21T06:36:13.201Z,45.68
2017-02-21T06:37:13.218Z,45.58
2017-02-21T06:38:13.654Z,45.58
2017-02-21T06:39:13.290Z,45.68
2017-02-21T06:40:13.943Z,45.48
2017-02-21T06:41:13.737Z,45.68
2017-02-21T06:42:13.749Z,45.77
2017-02-21T06:43:13.778Z,45.77
2017-02-21T06:44:13.406Z,45.79
2017-02-21T06:45:13.687Z,45.89
2017-02-21T06:46:13.864Z,45.77
2017-02-21T06:47:13.890Z,45.51
2017-02-21T06:48:13.516Z,45.48
2017-02-21T06:49:13.551Z,45.41
2017-02-21T06:50:13.822Z,45.31
2017-02-21T06:51:13.600Z,45.31
2017-02-21T06:52:13.628Z,45.12
2017-02-21T06:53:13.653Z,45.03
2017-02-21T06:54:14.087Z,45.12
2017-02-21T06:55:14.375Z,45.6
2017-02-21T06:56:14.137Z,45.41
2017-02-21T06:57:13.765Z,45.21
2017-02-21T06:58:14.196Z,45.21
2017-02-21T06:59:14.206Z,45.21
2017-02-21T07:00:14.493Z,45.31
2017-02-21T07:01:14.270Z,45.03
2017-02-21T07:02:13.905Z,45.41
2017-02-21T07:03:13.929Z,45.51
2017-02-21T07:04:14.350Z,45.41
2017-02-21T07:05:14.630Z,45.51
2017-02-21T07:06:14.412Z,45.31
2017-02-21T07:07:14.436Z,45.31
2017-02-21T07:08:14.057Z,45.31
2017-02-21T07:09:14.482Z,45.31
2017-02-21T07:10:14.131Z,45.41
2017-02-21T07:11:14.551Z,45.51
2017-02-21T07:12:14.176Z,45.12
2017-02-21T07:13:14.201Z,45.21
2017-02-21T07:14:14.229Z,45.41
2017-02-21T07:15:14.260Z,45.31
2017-02-21T07:16:14.288Z,45.21
2017-02-21T07:17:14.312Z,45.21
2017-02-21T07:18:14.342Z,45.21
2017-02-21T07:19:14.760Z,45.31
2017-02-21T07:20:14.795Z,45.21
2017-02-21T07:21:14.811Z,45.31
2017-02-21T07:22:14.844Z,45.21
2017-02-21T07:23:14.884Z,45.31
2017-02-21T07:24:14.902Z,45.6
2017-02-21T07:25:14.533Z,45.21
2017-02-21T07:26:14.960Z,45.6
2017-02-21T07:27:14.983Z,45.31
2017-02-21T07:28:14.620Z,45.51
2017-02-21T07:29:15.037Z,45.51
2017-02-21T07:30:15.070Z,45.6
2017-02-21T07:31:14.693Z,45.41
2017-02-21T07:32:15.127Z,45.51
2017-02-21T07:33:15.152Z,45.41
2017-02-21T07:34:14.773Z,45.21
2017-02-21T07:35:15.201Z,45.21
2017-02-21T07:36:15.238Z,45.21
2017-02-21T07:37:15.286Z,45.31
2017-02-21T07:38:14.888Z,45.31
2017-02-21T07:39:15.312Z,45.31
2017-02-21T07:40:14.945Z,45.12
2017-02-21T07:41:14.970Z,45.21
2017-02-21T07:42:14.999Z,45.31
2017-02-21T07:43:15.039Z,45.21
2017-02-21T07:44:15.052Z,45.31
2017-02-21T07:45:15.081Z,45.31
2017-02-21T07:46:15.506Z,45.12
2017-02-21T07:47:15.139Z,45.41
2017-02-21T07:48:15.563Z,45.41
2017-02-21T07:49:15.624Z,45.12
2017-02-21T07:50:15.620Z,45.41
2017-02-21T07:51:15.252Z,45.41
2017-02-21T07:52:15.274Z,45.41
2017-02-21T07:53:15.699Z,45.51
2017-02-21T07:54:15.324Z,45.51
2017-02-21T07:55:15.760Z,45.31
2017-02-21T07:56:15.397Z,45.87
2017-02-21T07:57:15.814Z,45.51
2017-02-21T07:58:15.455Z,45.12
2017-02-21T07:59:15.468Z,45.89
2017-02-21T08:00:15.487Z,45.89
2017-02-21T08:01:15.924Z,45.99
2017-02-21T08:02:15.549Z,45.51
2017-02-21T08:03:15.970Z,45.41
2017-02-21T08:04:16.000Z,45.41
2017-02-21T08:05:16.028Z,45.99
2017-02-21T08:06:16.077Z,45.99
2017-02-21T08:07:16.081Z,45.51
2017-02-21T08:08:16.122Z,45.7
2017-02-21T08:09:16.139Z,45.89
2017-02-21T08:10:16.168Z,45.6
2017-02-21T08:11:16.192Z,45.7
2017-02-21T08:12:15.825Z,45.99
2017-02-21T08:13:16.247Z,45.89
2017-02-21T08:14:15.879Z,45.89
2017-02-21T08:15:16.308Z,45.79
2017-02-21T08:16:15.936Z,45.79
2017-02-21T08:17:16.358Z,45.79
2017-02-21T08:18:16.382Z,45.77
2017-02-21T08:19:16.015Z,45.89
2017-02-21T08:20:16.439Z,45.7
2017-02-21T08:21:16.071Z,45.6
2017-02-21T08:22:16.104Z,45.89
2017-02-21T08:23:16.129Z,45.89
2017-02-21T08:24:16.154Z,45.48
2017-02-21T08:25:16.584Z,45.68
2017-02-21T08:26:16.882Z,45.79
2017-02-21T08:27:16.240Z,45.7
2017-02-21T08:28:16.685Z,45.58
2017-02-21T08:29:16.686Z,45.58
2017-02-21T08:30:16.710Z,45.58
2017-02-21T08:31:16.994Z,45.68
2017-02-21T08:32:16.768Z,45.51
2017-02-21T08:33:16.400Z,46.06
2017-02-21T08:34:16.441Z,45.39
2017-02-21T08:35:16.455Z,46.06
2017-02-21T08:36:17.130Z,45.48
2017-02-21T08:37:16.903Z,45.68
2017-02-21T08:38:16.539Z,45.89
2017-02-21T08:39:16.960Z,46.06
2017-02-21T08:40:16.985Z,46.15
2017-02-21T08:41:17.276Z,45.97
2017-02-21T08:42:17.045Z,45.77
2017-02-21T08:43:17.071Z,46.06
2017-02-21T08:44:16.723Z,46.25
2017-02-21T08:45:17.139Z,45.97
2017-02-21T08:46:17.153Z,46.15
2017-02-21T08:47:17.181Z,45.87
2017-02-21T08:48:17.206Z,45.87
2017-02-21T08:49:17.243Z,46.15
2017-02-21T08:50:16.868Z,46.06
2017-02-21T08:51:16.892Z,45.97
2017-02-21T08:52:16.925Z,46.25
2017-02-21T08:53:16.954Z,45.97
2017-02-21T08:54:17.370Z,46.25
2017-02-21T08:55:17.400Z,46.25
2017-02-21T08:56:17.432Z,45.68
2017-02-21T08:57:17.465Z,45.87
2017-02-21T08:58:17.498Z,45.87
2017-02-21T08:59:17.522Z,45.87
2017-02-21T09:00:17.539Z,45.97
2017-02-21T09:01:17.568Z,46.06
2017-02-21T09:02:17.592Z,45.87
2017-02-21T09:03:17.623Z,45.87
2017-02-21T09:04:17.650Z,46.55
2017-02-21T09:05:17.275Z,46.35
2017-02-21T09:06:17.707Z,46.25
2017-02-21T09:07:17.340Z,46.35
2017-02-21T09:08:17.768Z,46.25
2017-02-21T09:09:17.790Z,46.35
2017-02-21T09:10:17.810Z,46.64
2017-02-21T09:11:17.839Z,46.15
2017-02-21T09:12:17.483Z,46.15
2017-02-21T09:13:17.893Z,46.45
2017-02-21T09:14:17.953Z,46.35
2017-02-21T09:15:17.950Z,46.25
2017-02-21T09:16:17.974Z,46.64
2017-02-21T09:17:17.606Z,46.73
2017-02-21T09:18:18.032Z,46.35
2017-02-21T09:19:18.092Z,46.64
2017-02-21T09:20:17.689Z,46.25
2017-02-21T09:21:18.131Z,46.45
2017-02-21T09:22:18.139Z,46.35
2017-02-21T09:23:18.172Z,46.25
2017-02-21T09:24:18.200Z,46.64
2017-02-21T09:25:18.221Z,46.25
2017-02-21T09:26:18.245Z,46.35
2017-02-21T09:27:18.277Z,46.25
2017-02-21T09:28:18.315Z,46.35
2017-02-21T09:29:18.331Z,46.83
2017-02-21T09:30:17.972Z,46.35
2017-02-21T09:31:18.381Z,46.35
2017-02-21T09:32:18.665Z,46.35
2017-02-21T09:33:18.055Z,46.45
2017-02-21T09:34:18.479Z,46.45
2017-02-21T09:35:18.112Z,46.45
2017-02-21T09:36:18.129Z,46.15
2017-02-21T09:37:18.804Z,46.45
2017-02-21T09:38:18.594Z,46.45
2017-02-21T09:39:18.607Z,46.64
2017-02-21T09:40:18.636Z,46.55
2017-02-21T09:41:18.660Z,47.41
2017-02-21T09:42:18.941Z,48.28
2017-02-21T09:43:18.714Z,48.83
2017-02-21T09:44:18.753Z,49.12
2017-02-21T09:45:18.383Z,49.22
2017-02-21T09:46:18.804Z,49.89
2017-02-21T09:47:19.077Z,50.09
2017-02-21T09:48:18.465Z,50.09
2017-02-21T09:49:18.486Z,49.77
2017-02-21T09:50:18.931Z,50.15
2017-02-21T09:51:18.935Z,50.25
2017-02-21T09:52:19.216Z,50.93
2017-02-21T09:53:18.989Z,50.73
2017-02-21T09:54:19.022Z,50.83
2017-02-21T09:55:18.651Z,50.83
2017-02-21T09:56:18.667Z,51.21
2017-02-21T09:57:18.951Z,51.31
2017-02-21T09:58:19.157Z,51.31
2017-02-21T09:59:19.149Z,50.83
2017-02-21T10:00:18.794Z,51.21
2017-02-21T10:01:18.819Z,51.12
2017-02-21T10:02:19.483Z,51.5
2017-02-21T10:03:18.859Z,51.67
2017-02-21T10:04:19.285Z,51.38
2017-02-21T10:05:19.313Z,52.25
2017-02-21T10:06:18.937Z,52.06
2017-02-21T10:07:19.621Z,52.44
2017-02-21T10:08:19.387Z,52.15
2017-02-21T10:09:19.428Z,51.86
2017-02-21T10:10:19.445Z,52.44
2017-02-21T10:11:19.076Z,52.25
2017-02-21T10:12:19.111Z,52.34
2017-02-21T10:13:19.535Z,52.44
2017-02-21T10:14:19.159Z,52.73
2017-02-21T10:15:19.581Z,52.15
2017-02-21T10:16:19.625Z,52.25
2017-02-21T10:17:19.630Z,51.86
2017-02-21T10:18:19.299Z,52.06
2017-02-21T10:19:19.704Z,52.15
2017-02-21T10:20:19.716Z,52.15
2017-02-21T10:21:19.745Z,52.44
2017-02-21T10:22:19.375Z,52.15
2017-02-21T10:23:19.399Z,51.67
2017-02-21T10:24:19.433Z,51.5
2017-02-21T10:25:19.849Z,51.79
2017-02-21T10:26:19.894Z,51.31
2017-02-21T10:27:19.502Z,51.21
2017-02-21T10:28:19.935Z,51.02
2017-02-21T10:29:19.959Z,51.02
2017-02-21T10:30:19.986Z,50.83
2017-02-21T10:31:20.022Z,51.02
2017-02-21T10:32:20.038Z,50.93
2017-02-21T10:33:19.671Z,50.45
2017-02-21T10:34:20.099Z,50.63
2017-02-21T10:35:20.124Z,50.25
2017-02-21T10:36:20.149Z,50.25
2017-02-21T10:37:20.170Z,50.25
2017-02-21T10:38:20.208Z,50.37
2017-02-21T10:39:20.227Z,49.89
2017-02-21T10:40:20.260Z,49.99
2017-02-21T10:41:20.281Z,49.99
2017-02-21T10:42:20.310Z,50.18
2017-02-21T10:43:20.349Z,49.7
2017-02-21T10:44:19.971Z,49.99
2017-02-21T10:45:20.393Z,50.09
2017-02-21T10:46:20.417Z,50.27
2017-02-21T10:47:20.444Z,49.32
2017-02-21T10:48:20.078Z,49.79
2017-02-21T10:49:20.500Z,49.79
2017-02-21T10:50:20.528Z,49.99
2017-02-21T10:51:20.152Z,49.89
2017-02-21T10:52:20.618Z,49.89
2017-02-21T10:53:20.218Z,49.99
2017-02-21T10:54:20.637Z,49.41
2017-02-21T10:55:20.664Z,49.51
2017-02-21T10:56:20.689Z,49.51
2017-02-21T10:57:20.343Z,49.51
2017-02-21T10:58:20.991Z,49.51
2017-02-21T10:59:20.770Z,49.51
2017-02-21T11:00:20.811Z,49.79
2017-02-21T11:01:20.832Z,49.6
2017-02-21T11:02:20.853Z,49.51
2017-02-21T11:03:21.135Z,48.83
2017-02-21T11:04:20.919Z,48.93
2017-02-21T11:05:20.535Z,49.02
2017-02-21T11:06:20.961Z,48.93
2017-02-21T11:07:20.588Z,49.22
2017-02-21T11:08:20.869Z,49.12
2017-02-21T11:09:21.098Z,48.93
2017-02-21T11:10:21.124Z,48.74
2017-02-21T11:11:20.713Z,49.12
2017-02-21T11:12:20.727Z,49.12
2017-02-21T11:13:21.403Z,48.93
2017-02-21T11:14:21.177Z,49.22
2017-02-21T11:15:21.213Z,49.02
2017-02-21T11:16:21.233Z,48.83
2017-02-21T11:17:20.876Z,49.02
2017-02-21T11:18:21.539Z,49.41
2017-02-21T11:19:21.318Z,49.12
2017-02-21T11:20:21.341Z,49.32
2017-02-21T11:21:21.371Z,49.12
2017-02-21T11:22:21.410Z,49.12
2017-02-21T11:23:21.290Z,49.22
2017-02-21T11:24:21.451Z,49.12
2017-02-21T11:25:21.512Z,49.02
2017-02-21T11:26:21.108Z,48.83
2017-02-21T11:27:21.135Z,48.93
2017-02-21T11:28:21.818Z,49.22
2017-02-21T11:29:21.591Z,48.83
2017-02-21T11:30:21.237Z,48.64
2017-02-21T11:31:21.645Z,48.74
2017-02-21T11:32:21.674Z,48.74
2017-02-21T11:33:21.950Z,48.83
2017-02-21T11:34:21.728Z,48.76
2017-02-21T11:35:21.757Z,49.05
2017-02-21T11:36:21.788Z,48.47
2017-02-21T11:37:21.422Z,48.95
2017-02-21T11:38:22.091Z,49.05
2017-02-21T11:39:21.860Z,49.02
2017-02-21T11:40:21.896Z,49.05
2017-02-21T11:41:21.521Z,48.95
2017-02-21T11:42:21.550Z,48.76
2017-02-21T11:43:22.221Z,48.86
2017-02-21T11:44:22.011Z,48.54
2017-02-21T11:45:22.024Z,48.66
2017-02-21T11:46:22.088Z,48.66
2017-02-21T11:47:21.682Z,48.66
2017-02-21T11:48:22.370Z,48.66
2017-02-21T11:49:22.136Z,48.76
2017-02-21T11:50:21.764Z,48.76
2017-02-21T11:51:22.193Z,48.86
2017-02-21T11:52:21.842Z,48.57
2017-02-21T11:53:22.242Z,48.57
2017-02-21T11:54:22.271Z,48.57
2017-02-21T11:55:21.904Z,48.57
2017-02-21T11:56:22.325Z,48.76
2017-02-21T11:57:21.966Z,48.28
2017-02-21T11:58:21.991Z,48.28
2017-02-21T11:59:22.008Z,48.47
2017-02-21T12:00:22.440Z,48.76
2017-02-21T12:01:22.465Z,48.18
2017-02-21T12:02:22.090Z,48.38
2017-02-21T12:03:22.531Z,48.18
2017-02-21T12:04:22.546Z,47.6
2017-02-21T12:05:22.176Z,48.66
2017-02-21T12:06:22.601Z,48.47
2017-02-21T12:07:22.626Z,48.47
2017-02-21T12:08:22.658Z,48.28
2017-02-21T12:09:22.287Z,48.28
2017-02-21T12:10:22.712Z,48.38
2017-02-21T12:11:22.749Z,47.7
2017-02-21T12:12:22.770Z,47.99
2017-02-21T12:13:22.791Z,48.38
2017-02-21T12:14:22.823Z,48.28
2017-02-21T12:15:22.848Z,48.18
2017-02-21T12:16:22.876Z,48.28
2017-02-21T12:17:22.505Z,47.7
2017-02-21T12:18:22.542Z,47.8
2017-02-21T12:19:22.954Z,47.99
2017-02-21T12:20:22.980Z,47.7
2017-02-21T12:21:23.012Z,47.7
2017-02-21T12:22:23.037Z,48.08
2017-02-21T12:23:23.065Z,47.51
2017-02-21T12:24:23.095Z,47.7
2017-02-21T12:25:23.124Z,48.28
2017-02-21T12:26:23.153Z,48.28
2017-02-21T12:27:23.181Z,47.89
2017-02-21T12:28:23.202Z,48.08
2017-02-21T12:29:22.847Z,47.8
2017-02-21T12:30:22.863Z,47.99
2017-02-21T12:31:22.887Z,47.99
2017-02-21T12:32:22.952Z,47.99
2017-02-21T12:33:23.342Z,48.18
2017-02-21T12:34:22.979Z,48.08
2017-02-21T12:35:23.395Z,48.18
2017-02-21T12:36:23.029Z,48.08
2017-02-21T12:37:23.069Z,47.99
2017-02-21T12:38:23.483Z,47.89
2017-02-21T12:39:23.759Z,48.18
2017-02-21T12:40:23.139Z,48.18
2017-02-21T12:41:23.164Z,48.28
2017-02-21T12:42:23.589Z,48.18
2017-02-21T12:43:23.618Z,47.89
2017-02-21T12:44:23.498Z,47.99
2017-02-21T12:45:23.671Z,47.89
2017-02-21T12:46:23.305Z,47.99
2017-02-21T12:47:23.330Z,47.99
2017-02-21T12:48:23.369Z,48.18
2017-02-21T12:49:24.030Z,47.99
2017-02-21T12:50:23.811Z,47.89
2017-02-21T12:51:23.840Z,47.99
2017-02-21T12:52:23.864Z,47.89
2017-02-21T12:53:23.897Z,48.18
2017-02-21T12:54:24.170Z,47.8
2017-02-21T12:55:23.551Z,47.99
2017-02-21T12:56:23.968Z,47.99